Upstream stations:
Downstream station:
SHEF ID: OKBO2 North Canadian River at Britton
STATION TYPE:
STAGE RIV-FLOW WTR-TEMP DIS-OXY CONDUCT BAT-LOAD
ft cfs F mg/l umho/cm volt
Ccp-Rev Ccp-Rev Ccp-Rev Ccp-Rev Ccp-Rev Ccp-Rev
(US/Central)
03/06 00:00 5.81 107 ---- ---- 1031 12.29
03/06 01:00 5.79 104 ---- ---- 1186 12.27
03/06 02:00 5.78 102 ---- ---- 1243 12.22
03/06 03:00 5.76 99 ---- ---- 1237 12.19
03/06 04:00 5.71 90 ---- ---- 1205 12.14
03/06 05:00 5.68 85 ---- ---- 1169 12.13
03/06 06:00 5.65 81 ---- ---- 1133 12.09
03/06 07:00 5.63 77 ---- ---- 1103 12.06
03/06 08:00 5.59 71 ---- ---- 1079 12.09
03/06 09:00 5.56 67 ---- ---- 1058 12.42
03/06 10:00 5.55 66 ---- ---- 1040 13.15
03/06 11:00 5.53 63 ---- ---- 1025 13.57
03/06 12:00 5.51 60 ---- ---- 1013 13.64
03/06 13:00 5.48 56 ---- ---- 1006 13.61
03/06 14:00 5.45 52 ---- ---- 999 13.52
03/06 15:00 5.38 43 ---- ---- 994 13.49
03/06 16:00 5.37 42 ---- ---- 990 13.52
03/06 17:00 5.35 39 ---- ---- 985 13.42
03/06 18:00 5.34 38 ---- ---- 981 13.32
03/06 19:00 5.32 35 ---- ---- 973 13.03
03/06 20:00 5.34 38 ---- ---- 966 12.80
03/06 21:00 5.33 37 ---- ---- 964 12.62
03/06 22:00 5.31 34 ---- ---- 964 12.45
03/06 23:00 5.30 33 ---- ---- 962 12.32